createdAt,value
2018-11-11T00:00:56.777Z,4.63
2018-11-11T00:03:25.221Z,4.80
2018-11-11T00:05:53.707Z,4.87
2018-11-11T00:08:22.312Z,4.80
2018-11-11T00:10:50.988Z,4.60
2018-11-11T00:13:19.450Z,4.20
2018-11-11T00:15:47.952Z,4.03
2018-11-11T00:18:16.396Z,4.50
2018-11-11T00:20:44.840Z,4.40
2018-11-11T00:23:13.295Z,4.20
2018-11-11T00:25:41.735Z,4.73
2018-11-11T00:28:10.148Z,4.60
2018-11-11T00:30:38.633Z,4.17
2018-11-11T00:33:07.067Z,4.47
2018-11-11T00:35:35.541Z,4.60
2018-11-11T00:38:03.993Z,4.07
2018-11-11T00:40:32.417Z,3.80
2018-11-11T00:43:00.849Z,4.13
2018-11-11T00:45:29.514Z,4.10
2018-11-11T00:47:57.962Z,4.07
2018-11-11T00:50:26.417Z,3.93
2018-11-11T00:52:54.876Z,4.03
2018-11-11T00:55:23.349Z,3.97
2018-11-11T00:57:51.802Z,4.10
2018-11-11T01:00:20.278Z,4.00
2018-11-11T01:02:48.753Z,3.93
2018-11-11T01:05:17.210Z,4.00
2018-11-11T01:07:45.672Z,3.47
2018-11-11T01:10:15.570Z,4.10
2018-11-11T01:12:44.475Z,3.93
2018-11-11T01:15:14.193Z,4.03
2018-11-11T01:17:42.766Z,3.77
2018-11-11T01:20:12.684Z,3.30
2018-11-11T01:22:41.146Z,3.23
2018-11-11T01:25:11.498Z,3.90
2018-11-11T01:27:40.083Z,3.90
2018-11-11T01:30:08.979Z,3.67
2018-11-11T01:32:37.878Z,3.33
2018-11-11T01:35:08.937Z,3.33
2018-11-11T01:37:37.525Z,3.93
2018-11-11T01:40:06.812Z,3.60
2018-11-11T01:42:35.401Z,3.50
2018-11-11T01:45:03.878Z,3.43
2018-11-11T01:47:32.513Z,3.70
2018-11-11T01:50:00.938Z,3.47
2018-11-11T01:52:29.381Z,3.17
2018-11-11T01:54:57.828Z,3.67
2018-11-11T01:57:26.280Z,3.17
2018-11-11T01:59:54.729Z,3.23
2018-11-11T02:02:23.153Z,3.33
2018-11-11T02:04:51.589Z,3.30
2018-11-11T02:07:20.046Z,3.10
2018-11-11T02:09:48.560Z,3.17
2018-11-11T02:12:16.969Z,3.23
2018-11-11T02:14:45.449Z,3.27
2018-11-11T02:17:13.898Z,3.37
2018-11-11T02:19:42.324Z,3.30
2018-11-11T02:22:10.793Z,2.87
2018-11-11T02:24:39.245Z,3.37
2018-11-11T02:27:07.870Z,2.80
2018-11-11T02:29:36.338Z,2.63
2018-11-11T02:32:05.029Z,3.00
2018-11-11T02:34:33.443Z,3.23
2018-11-11T02:37:01.888Z,3.17
2018-11-11T02:39:30.338Z,2.93
2018-11-11T02:41:59.157Z,2.50
2018-11-11T02:44:27.592Z,2.60
2018-11-11T02:46:56.028Z,2.70
2018-11-11T02:49:27.662Z,2.87
2018-11-11T02:51:56.158Z,3.20
2018-11-11T02:54:24.584Z,2.70
2018-11-11T02:56:53.045Z,2.70
2018-11-11T02:59:21.503Z,2.87
2018-11-11T03:01:49.939Z,2.67
2018-11-11T03:04:18.428Z,2.80
2018-11-11T03:06:46.907Z,2.77
2018-11-11T03:09:15.544Z,2.90
2018-11-11T03:11:43.956Z,2.60
2018-11-11T03:14:12.413Z,2.90
2018-11-11T03:16:40.841Z,2.57
2018-11-11T03:19:09.288Z,2.70
2018-11-11T03:21:37.770Z,2.80
2018-11-11T03:24:06.636Z,2.43
2018-11-11T03:26:35.296Z,2.57
2018-11-11T03:29:03.900Z,2.97
2018-11-11T03:31:32.324Z,2.90
2018-11-11T03:34:00.775Z,2.63
2018-11-11T03:36:29.231Z,3.00
2018-11-11T03:38:57.670Z,2.70
2018-11-11T03:41:26.099Z,2.60
2018-11-11T03:43:54.552Z,2.47
2018-11-11T03:46:23.272Z,2.43
2018-11-11T03:48:51.725Z,2.20
2018-11-11T03:51:20.278Z,2.60
2018-11-11T03:53:48.724Z,2.43
2018-11-11T03:56:17.191Z,2.33
2018-11-11T03:58:45.776Z,2.90
2018-11-11T04:01:14.153Z,2.53
2018-11-11T04:03:42.585Z,2.40
2018-11-11T04:06:11.064Z,2.60
2018-11-11T04:08:39.510Z,2.40
2018-11-11T04:11:07.978Z,2.30
2018-11-11T04:13:36.637Z,2.37
2018-11-11T04:16:05.356Z,2.63
2018-11-11T04:18:33.809Z,2.57
2018-11-11T04:21:02.270Z,2.60
2018-11-11T04:23:30.701Z,2.50
2018-11-11T04:25:59.117Z,2.90
2018-11-11T04:28:30.761Z,2.57
2018-11-11T04:30:59.194Z,2.80
2018-11-11T04:33:27.648Z,2.43
2018-11-11T04:35:56.089Z,2.23
2018-11-11T04:38:24.539Z,2.47
2018-11-11T04:40:52.973Z,2.30
2018-11-11T04:43:21.425Z,2.20
2018-11-11T04:45:49.860Z,2.20
2018-11-11T04:48:18.362Z,2.40
2018-11-11T04:50:46.861Z,2.20
2018-11-11T04:53:15.493Z,2.50
2018-11-11T04:55:43.940Z,2.20
2018-11-11T04:58:12.399Z,2.23
2018-11-11T05:00:40.813Z,2.27
2018-11-11T05:03:09.285Z,2.10
2018-11-11T05:05:37.745Z,2.27
2018-11-11T05:08:06.348Z,2.17
2018-11-11T05:10:34.799Z,2.40
2018-11-11T05:13:03.260Z,2.03
2018-11-11T05:15:31.731Z,2.23
2018-11-11T05:18:00.177Z,1.80
2018-11-11T05:20:28.618Z,2.30
2018-11-11T05:22:57.041Z,2.10
2018-11-11T05:25:25.785Z,2.07
2018-11-11T05:27:54.241Z,2.20
2018-11-11T05:30:22.698Z,2.20
2018-11-11T05:32:51.169Z,2.10
2018-11-11T05:35:19.649Z,2.00
2018-11-11T05:37:48.076Z,1.77
2018-11-11T05:40:16.516Z,2.20
2018-11-11T05:42:44.996Z,1.90
2018-11-11T05:45:14.665Z,1.97
2018-11-11T05:47:43.580Z,1.70
2018-11-11T05:50:14.441Z,2.13
2018-11-11T05:52:43.808Z,1.93
2018-11-11T05:55:12.407Z,1.97
2018-11-11T05:57:41.118Z,1.80
2018-11-11T06:00:11.949Z,1.70
2018-11-11T06:02:40.435Z,2.20
2018-11-11T06:05:10.481Z,1.90
2018-11-11T06:07:38.972Z,2.10
2018-11-11T06:10:08.837Z,2.10
2018-11-11T06:12:37.293Z,1.77
2018-11-11T06:15:07.349Z,1.77
2018-11-11T06:17:36.078Z,1.80
2018-11-11T06:20:05.647Z,2.00
2018-11-11T06:22:34.101Z,2.00
2018-11-11T06:25:02.545Z,1.90
2018-11-11T06:27:31.073Z,1.60
2018-11-11T06:29:59.505Z,1.80
2018-11-11T06:32:27.928Z,1.70
2018-11-11T06:34:56.457Z,1.60
2018-11-11T06:37:24.895Z,1.83
2018-11-11T06:39:53.336Z,1.80
2018-11-11T06:42:21.811Z,1.90
2018-11-11T06:44:50.250Z,2.00
2018-11-11T06:47:18.704Z,1.90
2018-11-11T06:49:47.284Z,1.90
2018-11-11T06:52:19.083Z,1.50
2018-11-11T06:54:47.536Z,1.97
2018-11-11T06:57:19.436Z,1.93
2018-11-11T06:59:47.986Z,1.90
2018-11-11T07:02:16.437Z,1.97
2018-11-11T07:04:44.953Z,1.70
2018-11-11T07:07:13.487Z,1.77
2018-11-11T07:09:42.002Z,1.70
2018-11-11T07:12:10.460Z,1.80
2018-11-11T07:14:38.933Z,1.93
2018-11-11T07:17:07.465Z,1.67
2018-11-11T07:19:36.037Z,1.80
2018-11-11T07:22:04.853Z,1.87
2018-11-11T07:24:33.413Z,1.50
2018-11-11T07:27:01.943Z,1.43
2018-11-11T07:29:30.406Z,1.67
2018-11-11T07:31:58.847Z,1.80
2018-11-11T07:34:27.325Z,1.90
2018-11-11T07:36:55.764Z,1.50
2018-11-11T07:39:24.297Z,1.70
2018-11-11T07:41:52.760Z,1.90
2018-11-11T07:44:21.209Z,1.60
2018-11-11T07:46:49.654Z,1.70
2018-11-11T07:49:18.386Z,1.83
2018-11-11T07:51:49.969Z,2.00
2018-11-11T07:54:18.342Z,1.67
2018-11-11T07:56:46.772Z,1.43
2018-11-11T07:59:15.510Z,1.60
2018-11-11T08:01:44.012Z,1.60
2018-11-11T08:04:12.457Z,1.53
2018-11-11T08:06:40.910Z,1.83
2018-11-11T08:09:09.360Z,1.87
2018-11-11T08:12:09.095Z,1.53
2018-11-11T08:14:37.504Z,1.90
2018-11-11T08:17:05.877Z,1.40
2018-11-11T08:19:34.322Z,1.50
2018-11-11T08:22:02.724Z,1.67
2018-11-11T08:24:31.107Z,1.80
2018-11-11T08:26:59.557Z,1.80
2018-11-11T08:29:27.997Z,1.70
2018-11-11T08:31:56.428Z,1.70
2018-11-11T08:34:24.886Z,1.53
2018-11-11T08:36:53.324Z,1.70
2018-11-11T08:39:21.756Z,1.77
2018-11-11T08:41:50.222Z,2.00
2018-11-11T08:44:18.657Z,1.53
2018-11-11T08:46:47.098Z,1.73
2018-11-11T08:49:15.568Z,1.50
2018-11-11T08:51:44.028Z,1.77
2018-11-11T08:54:12.472Z,1.60
2018-11-11T08:56:40.961Z,1.63
2018-11-11T08:59:09.414Z,1.40
2018-11-11T09:01:41.381Z,1.80
2018-11-11T09:04:09.884Z,1.90
2018-11-11T09:06:38.341Z,1.60
2018-11-11T09:09:07.621Z,1.60
2018-11-11T09:11:36.793Z,1.30
2018-11-11T09:14:05.617Z,1.83
2018-11-11T09:16:34.056Z,1.60
2018-11-11T09:19:02.588Z,1.93
2018-11-11T09:21:31.092Z,1.70
2018-11-11T09:47:41.061Z,2.00
2018-11-11T09:50:11.531Z,1.70
2018-11-11T09:52:40.259Z,2.03
2018-11-11T09:55:10.497Z,2.17
2018-11-11T09:57:40.168Z,2.00
2018-11-11T10:00:14.633Z,2.30
2018-11-11T10:02:44.749Z,1.67
2018-11-11T10:05:51.169Z,2.00
2018-11-11T10:08:38.115Z,5.20
2018-11-11T10:11:17.647Z,12.43
2018-11-11T10:14:01.180Z,15.87
2018-11-11T10:16:38.993Z,11.80
2018-11-11T10:19:11.758Z,10.87
2018-11-11T10:21:51.819Z,11.87
2018-11-11T10:24:28.424Z,9.40
2018-11-11T10:27:06.258Z,11.47
2018-11-11T10:31:42.881Z,9.10
2018-11-11T10:34:17.629Z,8.47
2018-11-11T10:37:16.687Z,8.13
2018-11-11T10:39:49.860Z,7.80
2018-11-11T10:42:37.741Z,7.47
2018-11-11T10:45:25.263Z,6.63
2018-11-11T10:47:57.932Z,6.33
2018-11-11T10:50:44.840Z,6.73
2018-11-11T10:53:13.809Z,6.60
2018-11-11T10:55:42.604Z,6.27
2018-11-11T10:58:11.113Z,6.70
2018-11-11T11:00:44.917Z,6.67
2018-11-11T11:03:18.668Z,6.53
2018-11-11T11:05:47.617Z,7.00
2018-11-11T11:08:16.133Z,6.47
2018-11-11T11:10:44.659Z,5.77
2018-11-11T11:13:13.269Z,4.97
2018-11-11T11:15:41.725Z,5.20
2018-11-11T11:18:10.414Z,4.60
2018-11-11T11:20:39.038Z,4.70
2018-11-11T11:23:08.107Z,4.20
2018-11-11T11:25:36.657Z,4.10
2018-11-11T11:28:05.170Z,4.47
2018-11-11T11:30:33.602Z,4.47
2018-11-11T11:33:02.078Z,4.30
2018-11-11T11:35:30.583Z,4.17
2018-11-11T11:37:59.686Z,3.93
2018-11-11T11:40:28.986Z,3.53
2018-11-11T11:42:57.544Z,3.83
2018-11-11T11:45:26.162Z,3.23
2018-11-11T11:47:54.860Z,3.40
2018-11-11T11:50:23.746Z,4.33
2018-11-11T11:52:52.265Z,4.93
2018-11-11T11:55:21.140Z,5.70
2018-11-11T11:58:01.369Z,5.87
2018-11-11T12:00:30.364Z,5.50
2018-11-11T12:02:58.992Z,5.87
2018-11-11T12:05:27.603Z,5.33
2018-11-11T12:07:57.134Z,5.57
2018-11-11T12:10:25.697Z,5.80
2018-11-11T12:12:54.165Z,9.17
2018-11-11T12:15:23.572Z,7.67
2018-11-11T12:17:52.093Z,8.27
2018-11-11T12:20:20.768Z,7.17
2018-11-11T12:22:50.556Z,6.00
2018-11-11T12:25:19.409Z,5.83
2018-11-11T12:27:50.228Z,5.47
2018-11-11T12:30:19.576Z,4.87
2018-11-11T12:32:48.405Z,4.93
2018-11-11T12:35:18.033Z,4.47
2018-11-11T12:37:46.679Z,4.03
2018-11-11T12:40:16.591Z,4.40
2018-11-11T12:42:45.441Z,3.70
2018-11-11T12:45:14.419Z,4.00
2018-11-11T12:47:42.928Z,3.53
2018-11-11T12:50:12.849Z,4.03
2018-11-11T12:52:41.302Z,3.70
2018-11-11T12:55:09.814Z,3.33
2018-11-11T12:57:39.029Z,3.33
2018-11-11T13:00:11.325Z,3.10
2018-11-11T13:02:39.991Z,3.10
2018-11-11T13:05:09.537Z,3.27
2018-11-11T13:07:38.080Z,3.30
2018-11-11T13:10:08.920Z,3.20
2018-11-11T13:12:37.981Z,2.80
2018-11-11T13:15:07.813Z,3.10
2018-11-11T13:17:38.709Z,3.07
2018-11-11T13:20:10.481Z,2.90
2018-11-11T13:22:39.805Z,3.40
2018-11-11T13:25:09.564Z,29.70
2018-11-11T13:27:38.614Z,62.17
2018-11-11T13:30:09.318Z,47.30
2018-11-11T13:32:39.262Z,35.03
2018-11-11T13:35:09.577Z,25.07
2018-11-11T13:37:39.182Z,22.60
2018-11-11T13:40:10.046Z,23.40
2018-11-11T13:42:38.703Z,22.10
2018-11-11T13:45:10.369Z,22.77
2018-11-11T13:47:40.033Z,20.97
2018-11-11T13:50:13.193Z,21.60
2018-11-11T13:52:41.858Z,19.57
2018-11-11T13:55:11.482Z,20.30
2018-11-11T13:57:40.344Z,19.37
2018-11-11T14:00:15.868Z,18.90
2018-11-11T14:02:44.361Z,17.87
2018-11-11T14:05:13.200Z,16.93
2018-11-11T14:07:41.821Z,17.30
2018-11-11T14:10:11.905Z,17.57
2018-11-11T14:12:41.105Z,17.07
2018-11-11T14:15:15.207Z,15.90
2018-11-11T14:17:46.323Z,16.27
2018-11-11T14:20:17.132Z,16.17
2018-11-11T14:22:47.190Z,15.67
2018-11-11T14:25:20.120Z,15.63
2018-11-11T14:27:48.852Z,18.25
2018-11-11T14:30:19.865Z,14.83
2018-11-11T14:32:50.179Z,14.93
2018-11-11T14:35:22.802Z,13.60
2018-11-11T14:37:51.946Z,13.93
2018-11-11T14:40:22.217Z,13.33
2018-11-11T14:42:50.992Z,14.98
2018-11-11T14:45:21.327Z,16.10
2018-11-11T14:47:53.199Z,15.85
2018-11-11T14:50:22.767Z,16.37
2018-11-11T14:52:52.711Z,14.73
2018-11-11T14:55:26.354Z,12.50
2018-11-11T14:57:55.607Z,11.60
2018-11-11T15:00:25.947Z,12.60
2018-11-11T15:03:04.367Z,11.90
2018-11-11T15:05:34.796Z,11.60
2018-11-11T15:08:04.148Z,11.40
2018-11-11T15:10:33.114Z,10.47
2018-11-11T15:13:01.868Z,10.23
2018-11-11T15:15:31.047Z,10.07
2018-11-11T15:18:02.739Z,11.90
2018-11-11T15:20:32.821Z,10.00
2018-11-11T15:23:01.551Z,9.83
2018-11-11T15:25:31.033Z,9.67
2018-11-11T15:28:00.056Z,9.63
2018-11-11T15:30:30.984Z,8.93
2018-11-11T15:33:01.481Z,8.27
2018-11-11T15:35:30.674Z,8.37
2018-11-11T15:38:00.266Z,11.13
2018-11-11T15:40:32.000Z,9.10
2018-11-11T15:43:01.070Z,8.60
2018-11-11T15:45:31.186Z,9.23
2018-11-11T15:48:00.007Z,9.30
2018-11-11T15:50:30.647Z,9.03
2018-11-11T15:53:03.232Z,8.87
2018-11-11T15:55:33.742Z,7.93
2018-11-11T15:58:02.516Z,7.90
2018-11-11T16:00:33.301Z,8.33
2018-11-11T16:03:03.251Z,8.27
2018-11-11T16:05:31.739Z,7.10
2018-11-11T16:08:01.664Z,7.67
2018-11-11T16:10:31.517Z,7.37
2018-11-11T16:13:03.766Z,7.23
2018-11-11T16:15:35.531Z,9.27
2018-11-11T16:18:07.132Z,10.90
2018-11-11T16:20:36.005Z,9.63
2018-11-11T16:23:06.313Z,9.73
2018-11-11T16:25:35.380Z,9.53
2018-11-11T16:28:04.464Z,9.03
2018-11-11T16:30:34.526Z,9.90
2018-11-11T16:33:03.929Z,9.83
2018-11-11T16:35:33.123Z,11.22
2018-11-11T16:38:03.584Z,8.90
2018-11-11T16:40:36.639Z,9.07
2018-11-11T16:43:07.324Z,9.30
2018-11-11T16:45:37.778Z,8.90
2018-11-11T16:48:07.993Z,8.27
2018-11-11T16:50:38.190Z,8.73
2018-11-11T16:53:08.791Z,8.80
2018-11-11T16:55:38.286Z,8.13
2018-11-11T16:58:07.300Z,8.63
2018-11-11T17:00:37.409Z,8.10
2018-11-11T17:03:07.392Z,8.30
2018-11-11T17:05:38.976Z,8.20
2018-11-11T17:08:08.543Z,8.00
2018-11-11T17:10:47.550Z,8.30
2018-11-11T17:13:17.114Z,7.70
2018-11-11T17:15:46.891Z,7.10
2018-11-11T17:18:15.686Z,7.63
2018-11-11T17:20:44.682Z,7.97
2018-11-11T17:23:15.856Z,7.30
2018-11-11T17:25:45.884Z,7.70
2018-11-11T17:28:14.787Z,7.77
2018-11-11T17:30:43.541Z,8.47
2018-11-11T17:33:13.436Z,7.63
2018-11-11T17:35:44.104Z,7.50
2018-11-11T17:38:12.774Z,7.37
2018-11-11T17:40:44.265Z,7.03
2018-11-11T17:43:13.718Z,6.87
2018-11-11T17:45:42.842Z,7.17
2018-11-11T17:48:12.017Z,7.07
2018-11-11T17:50:41.175Z,6.90
2018-11-11T17:53:10.162Z,7.17
2018-11-11T17:55:39.563Z,6.30
2018-11-11T17:58:12.896Z,6.47
2018-11-11T18:00:41.593Z,6.10
2018-11-11T18:03:10.267Z,6.47
2018-11-11T18:05:40.352Z,6.20
2018-11-11T18:08:10.789Z,6.00
2018-11-11T18:10:39.766Z,6.07
2018-11-11T18:13:09.094Z,6.23
2018-11-11T18:15:39.477Z,6.20
2018-11-11T18:18:09.249Z,6.30
2018-11-11T18:20:40.572Z,5.97
2018-11-11T18:23:15.936Z,6.17
2018-11-11T18:25:44.947Z,5.97
2018-11-11T18:28:20.937Z,5.80
2018-11-11T18:30:49.671Z,5.93
2018-11-11T18:33:19.992Z,5.57
2018-11-11T18:35:48.704Z,5.30
2018-11-11T18:38:17.677Z,5.53
2018-11-11T18:40:48.859Z,6.37
2018-11-11T18:43:18.054Z,5.33
2018-11-11T18:45:46.617Z,6.00
2018-11-11T18:48:17.730Z,6.25
2018-11-11T18:50:47.717Z,5.37
2018-11-11T18:53:17.485Z,4.90
2018-11-11T18:55:47.854Z,5.17
2018-11-11T18:58:16.542Z,5.40
2018-11-11T19:00:45.184Z,4.70
2018-11-11T19:03:13.809Z,5.00
2018-11-11T19:05:42.905Z,4.60
2018-11-11T19:08:12.117Z,4.67
2018-11-11T19:10:40.870Z,4.87
2018-11-11T19:13:10.316Z,4.43
2018-11-11T19:15:39.190Z,4.87
2018-11-11T19:18:09.278Z,4.73
2018-11-11T19:20:39.081Z,4.83
2018-11-11T19:23:08.825Z,4.90
2018-11-11T19:25:37.426Z,4.50
2018-11-11T19:28:06.184Z,4.73
2018-11-11T19:30:35.271Z,4.80
2018-11-11T19:33:03.853Z,5.07
2018-11-11T19:35:33.954Z,4.80
2018-11-11T19:38:02.544Z,4.87
2018-11-11T19:40:31.807Z,4.87
2018-11-11T19:43:01.592Z,4.40
2018-11-11T19:45:30.961Z,4.70
2018-11-11T19:48:00.883Z,4.57
2018-11-11T19:50:30.826Z,5.07
2018-11-11T19:53:00.847Z,4.53
2018-11-11T19:55:30.561Z,4.50
2018-11-11T19:58:01.857Z,4.53
2018-11-11T20:00:31.559Z,4.37
2018-11-11T20:03:01.697Z,4.27
2018-11-11T20:05:30.502Z,4.47
2018-11-11T20:08:00.852Z,4.27
2018-11-11T20:10:30.678Z,4.37
2018-11-11T20:13:00.863Z,4.80
2018-11-11T20:15:31.850Z,4.20
2018-11-11T20:18:00.342Z,4.40
2018-11-11T20:20:32.072Z,4.70
2018-11-11T20:23:01.814Z,4.67
2018-11-11T20:25:30.771Z,4.03
2018-11-11T20:28:00.379Z,4.33
2018-11-11T20:30:30.415Z,3.80
2018-11-11T20:32:59.191Z,3.80
2018-11-11T20:35:30.288Z,4.50
2018-11-11T20:38:00.288Z,4.27
2018-11-11T20:40:29.845Z,4.20
2018-11-11T20:42:59.353Z,4.37
2018-11-11T20:45:31.190Z,4.23
2018-11-11T20:48:00.401Z,4.10
2018-11-11T20:50:30.992Z,3.90
2018-11-11T20:53:02.110Z,4.63
2018-11-11T20:55:30.839Z,4.00
2018-11-11T20:57:59.923Z,4.30
2018-11-11T21:00:32.118Z,3.67
2018-11-11T21:03:00.631Z,3.70
2018-11-11T21:05:30.018Z,4.07
2018-11-11T21:07:58.869Z,3.83
2018-11-11T21:10:28.615Z,3.80
2018-11-11T21:12:58.593Z,3.87
2018-11-11T21:15:29.952Z,3.83
2018-11-11T21:17:58.490Z,4.13
2018-11-11T21:20:28.522Z,3.77
2018-11-11T21:22:57.681Z,4.20
2018-11-11T21:25:26.529Z,3.73
2018-11-11T21:27:55.145Z,4.00
2018-11-11T21:30:25.145Z,4.30
2018-11-11T21:32:54.724Z,4.20
2018-11-11T21:35:23.686Z,3.80
2018-11-11T21:37:52.955Z,3.80
2018-11-11T21:40:22.853Z,3.80
2018-11-11T21:42:52.025Z,5.13
2018-11-11T21:45:23.732Z,4.20
2018-11-11T21:47:53.667Z,4.70
2018-11-11T21:50:23.540Z,4.70
2018-11-11T21:53:56.317Z,4.50
2018-11-11T21:56:26.124Z,3.80
2018-11-11T21:58:54.975Z,4.60
2018-11-11T22:01:23.681Z,4.33
2018-11-11T22:03:52.653Z,4.43
2018-11-11T22:06:21.457Z,4.40
2018-11-11T22:08:50.318Z,4.50
2018-11-11T22:11:19.476Z,4.23
2018-11-11T22:13:49.057Z,4.10
2018-11-11T22:16:18.237Z,4.13
2018-11-11T22:18:46.996Z,3.87
2018-11-11T22:21:15.706Z,3.73
2018-11-11T22:23:44.318Z,4.10
2018-11-11T22:26:12.874Z,4.00
2018-11-11T22:28:41.491Z,3.50
2018-11-11T22:31:10.098Z,3.67
2018-11-11T22:33:39.090Z,4.33
2018-11-11T22:36:08.833Z,3.67
2018-11-11T22:38:38.896Z,3.50
2018-11-11T22:41:07.529Z,3.73
2018-11-11T22:43:36.636Z,3.57
2018-11-11T22:46:05.316Z,3.60
2018-11-11T22:48:34.002Z,3.50
2018-11-11T22:51:03.151Z,3.33
2018-11-11T22:53:32.111Z,3.30
2018-11-11T22:56:02.757Z,3.50
2018-11-11T22:58:31.427Z,3.70
2018-11-11T23:01:06.488Z,3.63
2018-11-11T23:03:40.978Z,3.37
2018-11-11T23:06:09.879Z,3.23
2018-11-11T23:08:40.000Z,3.70
2018-11-11T23:11:08.630Z,3.70
2018-11-11T23:13:37.466Z,3.30
2018-11-11T23:16:06.173Z,3.80
2018-11-11T23:18:34.858Z,3.30
2018-11-11T23:21:03.528Z,3.50
2018-11-11T23:23:32.006Z,3.23
2018-11-11T23:26:02.125Z,3.30
2018-11-11T23:28:30.916Z,3.50
2018-11-11T23:31:00.686Z,3.73
2018-11-11T23:33:29.392Z,3.33
2018-11-11T23:35:58.149Z,3.43
2018-11-11T23:38:26.749Z,3.60
2018-11-11T23:40:55.230Z,3.50
2018-11-11T23:43:24.926Z,3.23
2018-11-11T23:45:53.579Z,3.97
2018-11-11T23:48:22.376Z,3.47
2018-11-11T23:50:50.990Z,3.50
2018-11-11T23:53:20.175Z,3.77
2018-11-11T23:55:49.040Z,3.40
2018-11-11T23:58:17.597Z,3.50
